This is the latest recevied weather packets stored in our database for station/object DB0OHA-13. If no packets are shown the sender has not sent any weather packets the latest 1 day(s).
| Time | Temp. | Humidity | Pressure | Rain* | Wind** | Luminosity | Snow |
|---|---|---|---|---|---|---|---|
| 1777999271 | 15.56° C | 1% | 1006.4 hPa | 0 mm | 0 m/s | 24 W/m² | - |
| 1777998670 | 15.56° C | 1% | 1006.5 hPa | 0 mm | 0.45 m/s, 56° | 32 W/m² | - |
| 1777997470 | 16.11° C | 1% | 1006.6 hPa | 0 mm | 0.45 m/s, 52° | 50 W/m² | - |
| 1777996870 | 16.67° C | 1% | 1006.6 hPa | 0 mm | 0 m/s | 76 W/m² | - |
| 1777996270 | 16.67° C | 1% | 1006.5 hPa | 0 mm | 0.45 m/s, 40° | 133 W/m² | - |
| 1777995670 | 16.67° C | 1% | 1006.5 hPa | 0 mm | 0.89 m/s, 38° | 173 W/m² | - |
| 1777995070 | 16.67° C | 1% | 1006.8 hPa | 0 mm | 0.45 m/s, 36° | 180 W/m² | - |
| 1777994470 | 16.67° C | 1% | 1006.7 hPa | 0 mm | 1.79 m/s, 16° | 194 W/m² | - |
| 1777993870 | 16.67° C | 1% | 1006.6 hPa | 0 mm | 1.79 m/s, 61° | 146 W/m² | - |
| 1777993270 | 16.67° C | 1% | 1006.8 hPa | 0 mm | 1.34 m/s, 55° | 128 W/m² | - |
| 1777992670 | 16.67° C | 1% | 1006.9 hPa | 0 mm | 1.34 m/s, 37° | 138 W/m² | - |
| 1777991469 | 17.22° C | 6% | 1007 hPa | 0 mm | 0.89 m/s, 30° | 126 W/m² | - |
| 1777990869 | 17.78° C | 5% | 1007.2 hPa | 0 mm | 1.34 m/s, 33° | 161 W/m² | - |
| 1777990269 | 17.78° C | 1% | 1007.1 hPa | 0 mm | 0.89 m/s, 346° | 174 W/m² | - |
| 1777989669 | 18.33° C | 10% | 1007.2 hPa | 0 mm | 0 m/s | 149 W/m² | - |
| 1777989069 | 17.78° C | 29% | 1007.3 hPa | 0 mm | 0.89 m/s, 322° | 106 W/m² | - |
| 1777988469 | 18.33° C | 32% | 1007.4 hPa | 0 mm | 0.89 m/s, 296° | 146 W/m² | - |
| 1777987869 | 18.33° C | 39% | 1007.4 hPa | 0 mm | 1.34 m/s, 284° | 144 W/m² | - |
| 1777987269 | 18.89° C | 39% | 1007.6 hPa | 0 mm | 0 m/s | 234 W/m² | - |
| 1777986674 | 19.44° C | 40% | 1007.8 hPa | 0 mm | 0 m/s | 273 W/m² | - |
| 1777986073 | 20° C | 41% | 1007.8 hPa | 0 mm | 0 m/s | 637 W/m² | - |
| 1777985473 | 19.44° C | 40% | 1007.9 hPa | 0 mm | 0 m/s | 558 W/m² | - |
| 1777984873 | 20° C | 42% | 1008 hPa | 0 mm | 0 m/s | 756 W/m² | - |
| 1777984273 | 19.44° C | 41% | 1008.1 hPa | 0 mm | 0 m/s | 517 W/m² | - |
| 1777983673 | 18.33° C | 40% | 1008 hPa | 0 mm | 0 m/s | 371 W/m² | - |
* Rain latest hour (hover to see other rain measurements)
** Current wind speed in m/s (hover to see current wind gust speed)